• Join FlightAware (Why Join?)
  • Login
  • US Flag 
03:28PM EST


 

Airport Tracker/Info


-or-


 

Live Flight TrackerFlight Track Log ✈ SIA825 ✈ 30-Apr-2012 ✈ ZSPD / PVG - WSSS / SIN

Flight Track Log - Related Links

Times and Time Zones

All times are in EDT time to prevent confusion due to time zone crossing. See the SIA825 flight status page for this flight to view local times or setup timezone preferences in your user account.

Time Position Orientation Groundspeed Altitude Reporting Facility
EDT Latitude Longitude Course Direction KTS MPH feet Rate Location/Type
12:43PM 31.1179 121.7735 213° Southwest  Level Estimated
12:44PM 31.0181 121.6982 213° Southwest  Level Estimated
12:45PM 30.9183 121.6230 213° Southwest  Level Estimated
12:46PM 30.8184 121.5479 213° Southwest  Level Estimated
12:47PM 30.7185 121.4731 213° Southwest  Level Estimated
12:48PM 30.6186 121.3983 213° Southwest  Level Estimated
12:49PM 30.5186 121.3238 213° Southwest  Level Estimated
12:50PM 30.4186 121.2493 213° Southwest  Level Estimated
12:51PM 30.3185 121.1751 213° Southwest  Level Estimated
12:52PM 30.2184 121.1010 213° Southwest  Level Estimated
12:53PM 30.1182 121.0270 213° Southwest  Level Estimated
12:54PM 30.0180 120.9532 213° Southwest  Level Estimated
12:55PM 29.9178 120.8795 212° Southwest  Level Estimated
12:56PM 29.8176 120.8060 212° Southwest  Level Estimated
12:57PM 29.7172 120.7327 212° Southwest  Level Estimated
12:58PM 29.6169 120.6594 212° Southwest  Level Estimated
12:59PM 29.5165 120.5864 212° Southwest  Level Estimated
01:00PM 29.4160 120.5134 212° Southwest  Level Estimated
01:01PM 29.3156 120.4406 212° Southwest  Level Estimated
01:02PM 29.2150 120.3680 212° Southwest  Level Estimated
01:03PM 29.1145 120.2955 212° Southwest  Level Estimated
01:04PM 29.0139 120.2231 212° Southwest  Level Estimated
01:05PM 28.9133 120.1509 212° Southwest  Level Estimated
01:06PM 28.8126 120.0788 212° Southwest  Level Estimated
01:07PM 28.7119 120.0069 212° Southwest  Level Estimated
01:08PM 28.6111 119.9351 212° Southwest  Level Estimated
01:09PM 28.5104 119.8634 212° Southwest  Level Estimated
01:10PM 28.4095 119.7919 212° Southwest  Level Estimated
01:11PM 28.3087 119.7205 212° Southwest  Level Estimated
01:12PM 28.2078 119.6493 212° Southwest  Level Estimated
01:13PM 28.1068 119.5781 212° Southwest  Level Estimated
01:14PM 28.0059 119.5071 212° Southwest  Level Estimated
01:15PM 27.9049 119.4363 212° Southwest  Level Estimated
01:16PM 27.8038 119.3656 212° Southwest  Level Estimated
01:17PM 27.7027 119.2950 212° Southwest  Level Estimated
01:18PM 27.6016 119.2245 212° Southwest  Level Estimated
01:19PM 27.5005 119.1542 212° Southwest  Level Estimated
01:20PM 27.3993 119.0840 212° Southwest  Level Estimated
01:21PM 27.2981 119.0139 212° Southwest  Level Estimated
01:22PM 27.1968 118.9440 212° Southwest  Level Estimated
01:23PM 27.0956 118.8742 212° Southwest  Level Estimated
01:24PM 26.9942 118.8045 211° Southwest  Level Estimated
01:25PM 26.8929 118.7349 211° Southwest  Level Estimated
01:26PM 26.7915 118.6655 211° Southwest  Level Estimated
01:27PM 26.6901 118.5962 211° Southwest  Level Estimated
01:28PM 26.5886 118.5270 211° Southwest  Level Estimated
01:29PM 26.4871 118.4579 211° Southwest  Level Estimated
01:30PM 26.3856 118.3890 211° Southwest  Level Estimated
01:31PM 26.2840 118.3201 211° Southwest  Level Estimated
01:32PM 26.1824 118.2514 211° Southwest  Level Estimated
01:33PM 26.0808 118.1828 211° Southwest  Level Estimated
01:34PM 25.9791 118.1144 211° Southwest  Level Estimated
01:35PM 25.8775 118.0460 211° Southwest  Level Estimated
01:36PM 25.7757 117.9778 211° Southwest  Level Estimated
01:37PM 25.6740 117.9097 211° Southwest  Level Estimated
01:38PM 25.5722 117.8417 211° Southwest  Level Estimated
01:39PM 25.4704 117.7738 211° Southwest  Level Estimated
01:40PM 25.3685 117.7060 211° Southwest  Level Estimated
01:41PM 25.2667 117.6384 211° Southwest  Level Estimated
01:42PM 25.1647 117.5708 211° Southwest  Level Estimated
01:43PM 25.0628 117.5034 211° Southwest  Level Estimated
01:44PM 24.9608 117.4361 211° Southwest  Level Estimated
01:45PM 24.8588 117.3689 211° Southwest  Level Estimated
01:46PM 24.7568 117.3018 211° Southwest  Level Estimated
01:47PM 24.6548 117.2348 211° Southwest  Level Estimated
01:48PM 24.5527 117.1679 211° Southwest  Level Estimated
01:49PM 24.4505 117.1011 211° Southwest  Level Estimated
01:50PM 24.3484 117.0345 211° Southwest  Level Estimated
01:51PM 24.2462 116.9679 211° Southwest  Level Estimated
01:52PM 24.1440 116.9015 211° Southwest  Level Estimated
01:53PM 24.0418 116.8351 211° Southwest  Level Estimated
01:54PM 23.9395 116.7689 211° Southwest  Level Estimated
01:55PM 23.8372 116.7028 211° Southwest  Level Estimated
01:56PM 23.7349 116.6367 211° Southwest  Level Estimated
01:57PM 23.6325 116.5708 211° Southwest  Level Estimated
01:58PM 23.5302 116.5050 210° Southwest  Level Estimated
01:59PM 23.4278 116.4393 210° Southwest  Level Estimated
02:00PM 23.3253 116.3737 210° Southwest  Level Estimated
02:01PM 23.2229 116.3082 210° Southwest  Level Estimated
02:02PM 23.1204 116.2428 210° Southwest  Level Estimated
02:03PM 23.0179 116.1775 210° Southwest  Level Estimated
02:04PM 22.9153 116.1123 210° Southwest  Level Estimated
02:05PM 22.8128 116.0471 210° Southwest  Level Estimated
02:06PM 22.7102 115.9821 210° Southwest  Level Estimated
02:07PM 22.6076 115.9172 210° Southwest  Level Estimated
02:08PM 22.5049 115.8524 210° Southwest  Level Estimated
02:09PM 22.4023 115.7877 210° Southwest  Level Estimated
02:10PM 22.2996 115.7230 210° Southwest  Level Estimated
02:11PM 22.1968 115.6585 210° Southwest  Level Estimated
02:12PM 22.0941 115.5941 210° Southwest  Level Estimated
02:13PM 21.9913 115.5297 210° Southwest  Level Estimated
02:14PM 21.8885 115.4655 210° Southwest  Level Estimated
02:15PM 21.7857 115.4013 210° Southwest  Level Estimated
02:16PM 21.6828 115.3372 210° Southwest  Level Estimated
02:17PM 21.5800 115.2732 210° Southwest  Level Estimated
02:18PM 21.4771 115.2094 210° Southwest  Level Estimated
02:19PM 21.3742 115.1456 210° Southwest  Level Estimated
02:20PM 21.2712 115.0819 210° Southwest  Level Estimated
02:21PM 21.1683 115.0182 210° Southwest  Level Estimated
02:22PM 21.0653 114.9547 210° Southwest  Level Estimated
02:23PM 20.9622 114.8913 210° Southwest  Level Estimated
02:24PM 20.8592 114.8279 210° Southwest  Level Estimated
02:25PM 20.7561 114.7647 210° Southwest  Level Estimated
02:26PM 20.6531 114.7015 210° Southwest  Level Estimated
02:27PM 20.5499 114.6384 210° Southwest  Level Estimated
02:28PM 20.4468 114.5754 210° Southwest  Level Estimated
02:29PM 20.3437 114.5125 210° Southwest  Level Estimated
02:30PM 20.2405 114.4496 210° Southwest  Level Estimated
02:31PM 20.1373 114.3868 210° Southwest  Level Estimated
02:32PM 20.0341 114.3242 210° Southwest  Level Estimated
02:33PM 19.9308 114.2616 210° Southwest  Level Estimated
02:34PM 19.8276 114.1991 210° Southwest  Level Estimated
02:35PM 19.7243 114.1366 210° Southwest  Level Estimated
02:36PM 19.6210 114.0743 210° Southwest  Level Estimated
02:37PM 19.5176 114.0120 210° Southwest  Level Estimated
02:38PM 19.4143 113.9498 210° Southwest  Level Estimated
02:39PM 19.3109 113.8877 210° Southwest  Level Estimated
02:40PM 19.2075 113.8257 210° Southwest  Level Estimated
02:41PM 19.1041 113.7637 209° Southwest  Level Estimated
02:42PM 19.0007 113.7019 209° Southwest  Level Estimated
02:43PM 18.8972 113.6401 209° Southwest  Level Estimated
02:44PM 18.7938 113.5783 209° Southwest  Level Estimated
02:45PM 18.6903 113.5167 209° Southwest  Level Estimated
02:46PM 18.5868 113.4551 209° Southwest  Level Estimated
02:47PM 18.4832 113.3936 209° Southwest  Level Estimated
02:48PM 18.3797 113.3322 209° Southwest  Level Estimated
02:49PM 18.2761 113.2709 209° Southwest  Level Estimated
02:50PM 18.1725 113.2096 209° Southwest  Level Estimated
02:51PM 18.0689 113.1484 209° Southwest  Level Estimated
02:52PM 17.9653 113.0872 209° Southwest  Level Estimated
02:53PM 17.8616 113.0262 209° Southwest  Level Estimated
02:54PM 17.7580 112.9652 209° Southwest  Level Estimated
02:55PM 17.6543 112.9043 209° Southwest  Level Estimated
02:56PM 17.5506 112.8434 209° Southwest  Level Estimated
02:57PM 17.4468 112.7827 209° Southwest  Level Estimated
02:58PM 17.3431 112.7219 209° Southwest  Level Estimated
02:59PM 17.2393 112.6613 209° Southwest  Level Estimated
03:00PM 17.1355 112.6007 209° Southwest  Level Estimated
03:01PM 17.0317 112.5402 209° Southwest  Level Estimated
03:02PM 16.9279 112.4798 209° Southwest  Level Estimated
03:03PM 16.8241 112.4194 209° Southwest  Level Estimated
03:04PM 16.7202 112.3591 209° Southwest  Level Estimated
03:05PM 16.6164 112.2989 209° Southwest  Level Estimated
03:06PM 16.5125 112.2387 209° Southwest  Level Estimated
03:07PM 16.4086 112.1786 209° Southwest  Level Estimated
03:08PM 16.3047 112.1185 209° Southwest  Level Estimated
03:09PM 16.2007 112.0586 209° Southwest  Level Estimated
03:10PM 16.0968 111.9986 209° Southwest  Level Estimated
03:11PM 15.9928 111.9388 209° Southwest  Level Estimated
03:12PM 15.8888 111.8790 209° Southwest  Level Estimated
03:13PM 15.7848 111.8193 209° Southwest  Level Estimated
03:14PM 15.6808 111.7596 209° Southwest  Level Estimated
03:15PM 15.5767 111.7000 209° Southwest  Level Estimated
03:16PM 15.4727 111.6404 209° Southwest  Level Estimated
03:17PM 15.3686 111.5809 209° Southwest  Level Estimated
03:18PM 15.2645 111.5215 209° Southwest  Level Estimated
03:19PM 15.1604 111.4622 209° Southwest  Level Estimated
03:20PM 15.0563 111.4028 209° Southwest  Level Estimated
03:21PM 14.9522 111.3436 209° Southwest  Level Estimated
03:22PM 14.8480 111.2844 209° Southwest  Level Estimated
03:23PM 14.7439 111.2253 209° Southwest  Level Estimated
03:24PM 14.6397 111.1662 209° Southwest  Level Estimated
03:25PM 14.5355 111.1071 209° Southwest  Level Estimated
03:26PM 14.4313 111.0482 209° Southwest  Level Estimated
03:27PM 14.3271 110.9893 209° Southwest  Level Estimated
03:28PM 14.2228 110.9304 209° Southwest  Level Estimated
03:29PM 14.1186 110.8716 209° Southwest  Level Estimated
03:30PM 14.0143 110.8128 209° Southwest  Level Estimated
03:31PM 13.9100 110.7541 209° Southwest  Level Estimated
03:32PM 13.8057 110.6955 209° Southwest  Level Estimated
03:33PM 13.7014 110.6369 209° Southwest  Level Estimated
03:34PM 13.5971 110.5784 209° Southwest  Level Estimated
03:35PM 13.4928 110.5199 209° Southwest  Level Estimated
03:36PM 13.3884 110.4614 209° Southwest  Level Estimated
03:37PM 13.2841 110.4031 209° Southwest  Level Estimated
03:38PM 13.1797 110.3447 209° Southwest  Level Estimated
03:39PM 13.0753 110.2864 209° Southwest  Level Estimated
03:40PM 12.9709 110.2282 209° Southwest  Level Estimated
03:41PM 12.8665 110.1700 209° Southwest  Level Estimated
03:42PM 12.7621 110.1118 208° Southwest  Level Estimated
03:43PM 12.6576 110.0537 208° Southwest  Level Estimated
03:44PM 12.5532 109.9957 208° Southwest  Level Estimated
03:45PM 12.4487 109.9377 208° Southwest  Level Estimated
03:46PM 12.3442 109.8797 208° Southwest  Level Estimated
03:47PM 12.2398 109.8218 208° Southwest  Level Estimated
03:48PM 12.1353 109.7640 208° Southwest  Level Estimated
03:49PM 12.0308 109.7061 208° Southwest  Level Estimated
03:50PM 11.9262 109.6484 208° Southwest  Level Estimated
03:51PM 11.8217 109.5907 208° Southwest  Level Estimated
03:52PM 11.7171 109.5330 208° Southwest  Level Estimated
03:53PM 11.6126 109.4753 208° Southwest  Level Estimated
03:54PM 11.5080 109.4177 208° Southwest  Level Estimated
03:55PM 11.4034 109.3602 208° Southwest  Level Estimated
03:56PM 11.2988 109.3027 208° Southwest  Level Estimated
03:57PM 11.1942 109.2452 208° Southwest  Level Estimated
03:58PM 11.0896 109.1878 208° Southwest  Level Estimated
03:59PM 10.9850 109.1304 208° Southwest  Level Estimated
04:00PM 10.8803 109.0730 208° Southwest  Level Estimated
04:01PM 10.7757 109.0157 208° Southwest  Level Estimated
04:02PM 10.6710 108.9585 208° Southwest  Level Estimated
04:03PM 10.5664 108.9012 208° Southwest  Level Estimated
04:04PM 10.4617 108.8440 208° Southwest  Level Estimated
04:05PM 10.3570 108.7869 208° Southwest  Level Estimated
04:06PM 10.2523 108.7298 208° Southwest  Level Estimated
04:07PM 10.1476 108.6727 208° Southwest  Level Estimated
04:08PM 10.0429 108.6157 208° Southwest  Level Estimated
04:09PM 9.9381 108.5587 208° Southwest  Level Estimated
04:10PM 9.8334 108.5017 208° Southwest  Level Estimated
04:11PM 9.7286 108.4448 208° Southwest  Level Estimated
04:12PM 9.6239 108.3879 208° Southwest  Level Estimated
04:13PM 9.5191 108.3310 208° Southwest  Level Estimated
04:14PM 9.4143 108.2742 208° Southwest  Level Estimated
04:15PM 9.3095 108.2174 208° Southwest  Level Estimated
04:16PM 9.2048 108.1607 208° Southwest  Level Estimated
04:17PM 9.0999 108.1040 208° Southwest  Level Estimated
04:18PM 8.9951 108.0473 208° Southwest  Level Estimated
04:19PM 8.8903 107.9906 208° Southwest  Level Estimated
04:20PM 8.7855 107.9340 208° Southwest  Level Estimated
04:21PM 8.6806 107.8774 208° Southwest  Level Estimated
04:22PM 8.5758 107.8209 208° Southwest  Level Estimated
04:23PM 8.4710 107.7644 208° Southwest  Level Estimated
04:24PM 8.3661 107.7079 208° Southwest  Level Estimated
04:25PM 8.2612 107.6514 208° Southwest  Level Estimated
04:26PM 8.1563 107.5950 208° Southwest  Level Estimated
04:27PM 8.0514 107.5386 208° Southwest  Level Estimated
04:28PM 7.9466 107.4822 208° Southwest  Level Estimated
04:29PM 7.8417 107.4258 208° Southwest  Level Estimated
04:30PM 7.7368 107.3695 208° Southwest  Level Estimated
04:31PM 7.6318 107.3132 208° Southwest  Level Estimated
04:32PM 7.5269 107.2570 208° Southwest  Level Estimated
04:33PM 7.4220 107.2007 208° Southwest  Level Estimated
04:34PM 7.3170 107.1445 208° Southwest  Level Estimated
04:35PM 7.2121 107.0883 208° Southwest  Level Estimated
04:36PM 7.1072 107.0322 208° Southwest  Level Estimated
04:37PM 7.0022 106.9761 208° Southwest  Level Estimated
04:38PM 6.8972 106.9200 208° Southwest  Level Estimated
04:39PM 6.7923 106.8639 208° Southwest  Level Estimated
04:40PM 6.6873 106.8078 208° Southwest  Level Estimated
04:41PM 6.5823 106.7518 208° Southwest  Level Estimated
04:42PM 6.4773 106.6958 208° Southwest  Level Estimated
04:43PM 6.3723 106.6398 208° Southwest  Level Estimated
04:44PM 6.2673 106.5838 208° Southwest  Level Estimated
04:45PM 6.1623 106.5279 208° Southwest  Level Estimated
04:46PM 6.0573 106.4720 208° Southwest  Level Estimated
04:47PM 5.9523 106.4161 208° Southwest  Level Estimated
04:48PM 5.8472 106.3602 208° Southwest  Level Estimated
04:49PM 5.7422 106.3044 208° Southwest  Level Estimated
04:50PM 5.6372 106.2485 208° Southwest  Level Estimated
04:51PM 5.5321 106.1927 208° Southwest  Level Estimated
04:52PM 5.4271 106.1369 208° Southwest  Level Estimated
04:53PM 5.3220 106.0811 208° Southwest  Level Estimated
04:54PM 5.2170 106.0254 208° Southwest  Level Estimated
04:55PM 5.1119 105.9697 208° Southwest  Level Estimated
04:56PM 5.0068 105.9139 208° Southwest  Level Estimated
04:57PM 4.9018 105.8582 208° Southwest  Level Estimated
04:58PM 4.7967 105.8026 208° Southwest  Level Estimated
04:59PM 4.6916 105.7469 208° Southwest  Level Estimated
05:00PM 4.5865 105.6913 208° Southwest  Level Estimated
05:01PM 4.4814 105.6356 208° Southwest  Level Estimated
05:02PM 4.3763 105.5800 208° Southwest  Level Estimated
05:03PM 4.2712 105.5244 208° Southwest  Level Estimated
05:04PM 4.1661 105.4688 208° Southwest  Level Estimated
05:05PM 4.0610 105.4133 208° Southwest  Level Estimated
05:06PM 3.9559 105.3577 208° Southwest  Level Estimated
05:07PM 3.8508 105.3022 208° Southwest  Level Estimated
05:08PM 3.7457 105.2466 208° Southwest  Level Estimated
05:09PM 3.6406 105.1911 208° Southwest  Level Estimated
05:10PM 3.5354 105.1356 208° Southwest  Level Estimated
05:11PM 3.4303 105.0801 208° Southwest  Level Estimated
05:12PM 3.3252 105.0247 208° Southwest  Level Estimated
05:13PM 3.2201 104.9692 208° Southwest  Level Estimated
05:14PM 3.1149 104.9138 208° Southwest  Level Estimated
05:15PM 3.0098 104.8583 208° Southwest  Level Estimated
05:16PM 2.9046 104.8029 208° Southwest  Level Estimated
05:17PM 2.7995 104.7475 208° Southwest  Level Estimated
05:18PM 2.6943 104.6921 208° Southwest  Level Estimated
05:19PM 2.5892 104.6367 208° Southwest  Level Estimated
05:20PM 2.4840 104.5813 208° Southwest  Level Estimated
05:21PM 2.3789 104.5259 208° Southwest  Level Estimated
05:22PM 2.2737 104.4705 208° Southwest  Level Estimated
05:23PM 2.1686 104.4152 208° Southwest  Level Estimated
05:24PM 2.0634 104.3598 208° Southwest  Level Estimated
05:25PM 1.9583 104.3045 208° Southwest  Level Estimated
05:26PM 1.8531 104.2491 208° Southwest  Level Estimated
05:27PM 1.7479 104.1938 208° Southwest  Level Estimated
05:28PM 1.6428 104.1384 208° Southwest  Level Estimated
05:29PM 1.5376 104.0831 208° Southwest  Level Estimated
05:30PM 1.4324 104.0278 208° Southwest  Level Estimated
05:31PM 1.3272 103.9725 28° Northeast  Level Estimated
05:32PM 1.4324 104.0278 208° Southwest  Level Estimated
05:33PM 1.3272 103.9725 28° Northeast  Level Estimated
05:34PM 1.4324 104.0278 208° Southwest  Level Estimated
05:35PM 1.3272 103.9725 28° Northeast  Level Estimated
05:36PM 1.4324 104.0278 208° Southwest  Level Estimated
05:37PM 1.3272 103.9725 28° Northeast  Level Estimated
05:38PM 1.4324 104.0278 208° Southwest  Level Estimated
05:39PM 1.3272 103.9725 28° Northeast  Level Estimated
05:40PM 1.4324 104.0278 208° Southwest  Level Estimated
05:41PM 1.3272 103.9725 28° Northeast  Level Estimated
05:42PM 1.4324 104.0278 208° Southwest  Level Estimated
05:43PM 1.3272 103.9725 28° Northeast  Level Estimated
05:44PM 1.4324 104.0278 208° Southwest  Level Estimated
05:45PM 1.3272 103.9725 28° Northeast  Level Estimated
05:46PM 1.4324 104.0278 28° Northeast  Level Estimated